Time;durP1;ratioP1;P1;durP2;ratioP2;P2;SDS_P1;SDS_P2;PMS_P1;PMS_P2;Temp;Humidity;BMP_temperature;BMP_pressure;BME280_temperature;BME280_humidity;BME280_pressure;Samples;Min_cycle;Max_cycle;Signal;HPM_P1;HPM_P2
2022/12/22 03:27:29;;;;;;;42.72;26.10;;;;;;;;;;5058858;28;20032;-78
2022/12/22 03:29:55;;;;;;;40.33;25.20;;;;;;;;;;5059775;28;20028;-77
2022/12/22 03:32:21;;;;;;;46.38;25.08;;;;;;;;;;5061500;28;20051;-78
2022/12/22 03:34:47;;;;;;;39.65;25.88;;;;;;;;;;5061440;28;20009;-77
2022/12/22 03:37:13;;;;;;;40.42;24.83;;;;;;;;;;5064980;28;20045;-77
2022/12/22 03:39:39;;;;;;;37.60;23.80;;;;;;;;;;5059687;28;20021;-78
2022/12/22 03:47:51;;;;;;;35.60;22.58;;;;;;;;;;5065542;28;20101;-77
2022/12/22 03:50:17;;;;;;;36.88;22.95;;;;;;;;;;5071154;28;20029;-77
2022/12/22 03:52:43;;;;;;;37.22;24.05;;;;;;;;;;5078839;28;20084;-77
2022/12/22 03:55:09;;;;;;;39.03;23.13;;;;;;;;;;5061744;28;20029;-78
2022/12/22 03:57:35;;;;;;;35.85;23.27;;;;;;;;;;5056824;28;20029;-78
2022/12/22 04:00:01;;;;;;;37.38;24.02;;;;;;;;;;5059114;28;20037;-78
2022/12/22 04:02:27;;;;;;;37.90;25.15;;;;;;;;;;5058187;28;20466;-79
2022/12/22 04:04:55;;;;;;;38.17;24.80;;;;;;;;;;5057990;28;20021;-79
2022/12/22 04:07:21;;;;;;;39.17;24.33;;;;;;;;;;5057113;28;20024;-78
2022/12/22 04:15:17;;;;;;;43.88;25.02;;;;;;;;;;5057189;28;20406;-79
2022/12/22 04:17:42;;;;;;;40.03;25.65;;;;;;;;;;5059056;28;20029;-78
2022/12/22 04:20:09;;;;;;;40.03;25.70;;;;;;;;;;5067871;28;20028;-78
2022/12/22 04:22:35;;;;;;;40.22;26.05;;;;;;;;;;5058301;28;20053;-78
2022/12/22 04:25:01;;;;;;;43.45;26.73;;;;;;;;;;5058306;28;20102;-77
2022/12/22 04:27:26;;;;;;;38.95;25.92;;;;;;;;;;5056678;28;20025;-77
2022/12/22 04:29:52;;;;;;;41.67;26.70;;;;;;;;;;5057061;28;20027;-79
2022/12/22 04:32:18;;;;;;;41.08;26.15;;;;;;;;;;5056865;28;20032;-78
2022/12/22 04:34:44;;;;;;;43.85;26.23;;;;;;;;;;5057856;28;20013;-79
2022/12/22 04:37:10;;;;;;;43.55;25.40;;;;;;;;;;5058853;28;20096;-79
2022/12/22 04:39:36;;;;;;;40.78;26.23;;;;;;;;;;5057727;28;20088;-77
2022/12/22 04:42:02;;;;;;;40.60;26.77;;;;;;;;;;5056729;28;20531;-78
2022/12/22 04:44:28;;;;;;;45.60;27.88;;;;;;;;;;5055918;28;20386;-78
2022/12/22 04:46:54;;;;;;;39.92;25.27;;;;;;;;;;5057158;28;20029;-77
2022/12/22 04:49:20;;;;;;;40.92;24.85;;;;;;;;;;5073130;28;20068;-77
2022/12/22 04:51:46;;;;;;;37.90;24.38;;;;;;;;;;5077190;28;20059;-75
2022/12/22 04:54:12;;;;;;;39.83;26.52;;;;;;;;;;5075777;28;20032;-76
2022/12/22 04:56:38;;;;;;;40.47;24.60;;;;;;;;;;5075602;28;20029;-75
2022/12/22 04:59:04;;;;;;;37.08;24.05;;;;;;;;;;5076971;28;20037;-75
2022/12/22 05:01:30;;;;;;;38.08;23.83;;;;;;;;;;5072866;28;20028;-76
2022/12/22 05:03:55;;;;;;;44.83;23.85;;;;;;;;;;5056182;28;20023;-78
2022/12/22 05:06:21;;;;;;;36.95;24.20;;;;;;;;;;5053966;28;20466;-76
2022/12/22 05:08:47;;;;;;;31.65;22.70;;;;;;;;;;5055354;28;20470;-76
2022/12/22 05:11:13;;;;;;;35.35;22.42;;;;;;;;;;5056572;28;20488;-76
2022/12/22 05:13:39;;;;;;;33.70;23.08;;;;;;;;;;5055635;28;20551;-76
2022/12/22 05:16:09;;;;;;;34.65;23.05;;;;;;;;;;5055338;28;20471;-76
2022/12/22 05:18:35;;;;;;;32.30;21.58;;;;;;;;;;5054560;28;20056;-76
2022/12/22 05:21:03;;;;;;;37.42;23.58;;;;;;;;;;5056145;28;20021;-76
2022/12/22 05:23:29;;;;;;;36.80;23.52;;;;;;;;;;5059197;28;20032;-76
2022/12/22 05:25:55;;;;;;;38.30;25.70;;;;;;;;;;5061232;28;20029;-78
2022/12/22 05:28:21;;;;;;;37.78;24.10;;;;;;;;;;5058795;28;20033;-77
2022/12/22 05:30:47;;;;;;;36.80;24.17;;;;;;;;;;5055941;28;20060;-78
2022/12/22 05:33:13;;;;;;;39.53;25.85;;;;;;;;;;5053557;28;20107;-78
2022/12/22 05:35:38;;;;;;;41.83;25.65;;;;;;;;;;5048056;28;20108;-77
2022/12/22 05:38:04;;;;;;;41.78;26.02;;;;;;;;;;5061677;28;20033;-78
2022/12/22 05:40:30;;;;;;;42.35;27.75;;;;;;;;;;5060891;28;20078;-79
2022/12/22 05:42:56;;;;;;;40.67;26.23;;;;;;;;;;5059706;28;20471;-79
2022/12/22 05:45:23;;;;;;;42.10;26.85;;;;;;;;;;5066722;28;20498;-79
2022/12/22 05:47:50;;;;;;;44.50;27.20;;;;;;;;;;5068520;28;20033;-78
2022/12/22 05:50:17;;;;;;;45.70;27.27;;;;;;;;;;5067383;28;20029;-78
2022/12/22 05:52:43;;;;;;;43.63;27.80;;;;;;;;;;5067800;28;20081;-78
2022/12/22 05:55:10;;;;;;;52.22;29.52;;;;;;;;;;5069890;28;20020;-75
2022/12/22 05:57:36;;;;;;;44.45;28.23;;;;;;;;;;5070125;28;20029;-76
2022/12/22 06:00:03;;;;;;;46.95;28.42;;;;;;;;;;5070707;28;20028;-75
2022/12/22 06:02:29;;;;;;;47.47;28.80;;;;;;;;;;5075532;28;20061;-77
2022/12/22 06:04:55;;;;;;;49.08;28.42;;;;;;;;;;5071338;28;20009;-78
2022/12/22 06:07:21;;;;;;;52.97;31.30;;;;;;;;;;5071312;28;20114;-76
2022/12/22 06:09:47;;;;;;;54.20;30.65;;;;;;;;;;5074442;28;20025;-75
2022/12/22 06:12:13;;;;;;;48.75;30.73;;;;;;;;;;5069734;28;20029;-76
2022/12/22 06:14:39;;;;;;;55.35;31.80;;;;;;;;;;5060218;28;20021;-77
2022/12/22 06:17:05;;;;;;;51.58;32.03;;;;;;;;;;5063871;28;20036;-77
2022/12/22 06:19:31;;;;;;;56.28;33.35;;;;;;;;;;5062079;28;20056;-77
2022/12/22 06:21:57;;;;;;;56.00;32.63;;;;;;;;;;5060151;28;20025;-77
2022/12/22 06:24:23;;;;;;;52.85;31.75;;;;;;;;;;5060580;28;20084;-76
2022/12/22 06:26:49;;;;;;;57.72;34.22;;;;;;;;;;5060706;28;20052;-78
2022/12/22 06:29:15;;;;;;;54.67;32.50;;;;;;;;;;5060567;28;20028;-78
2022/12/22 06:31:41;;;;;;;58.20;34.33;;;;;;;;;;5059518;28;20040;-77
2022/12/22 06:34:09;;;;;;;58.38;32.92;;;;;;;;;;5059581;28;20139;-78
2022/12/22 06:36:35;;;;;;;63.03;34.70;;;;;;;;;;5055898;28;20017;-77
2022/12/22 06:39:01;;;;;;;56.00;34.97;;;;;;;;;;5053631;28;20036;-79
2022/12/22 06:44:12;;;;;;;61.70;35.78;;;;;;;;;;5058811;28;20071;-76
2022/12/22 06:46:38;;;;;;;58.33;36.08;;;;;;;;;;5063129;28;20031;-80
2022/12/22 06:49:04;;;;;;;60.45;34.58;;;;;;;;;;5063845;28;20024;-77
2022/12/22 06:51:30;;;;;;;59.40;36.40;;;;;;;;;;5055619;28;20017;-77
2022/12/22 06:53:56;;;;;;;60.28;38.58;;;;;;;;;;5056004;28;20438;-76
2022/12/22 06:56:21;;;;;;;61.38;36.60;;;;;;;;;;5053838;28;20444;-78
2022/12/22 06:58:47;;;;;;;58.92;36.30;;;;;;;;;;5049102;28;20478;-78
2022/12/22 07:01:13;;;;;;;58.00;35.95;;;;;;;;;;5055279;28;20039;-76
2022/12/22 07:03:39;;;;;;;60.78;37.40;;;;;;;;;;5071980;28;20036;-75
2022/12/22 07:06:05;;;;;;;58.53;36.70;;;;;;;;;;5069975;28;20474;-75
2022/12/22 07:08:31;;;;;;;59.47;35.85;;;;;;;;;;5056979;28;20024;-77
2022/12/22 07:10:57;;;;;;;62.88;36.83;;;;;;;;;;5058612;28;20104;-76
2022/12/22 07:13:24;;;;;;;59.00;35.90;;;;;;;;;;5055661;28;20067;-76
2022/12/22 07:15:51;;;;;;;58.08;36.75;;;;;;;;;;5054417;28;20433;-79
2022/12/22 07:18:17;;;;;;;56.22;35.58;;;;;;;;;;5056424;28;20082;-77
2022/12/22 07:20:43;;;;;;;51.10;34.92;;;;;;;;;;5055942;28;20025;-75
2022/12/22 07:23:09;;;;;;;59.92;36.78;;;;;;;;;;5054531;28;20091;-77
2022/12/22 07:25:35;;;;;;;59.85;36.13;;;;;;;;;;5059275;28;20420;-76
2022/12/22 07:28:01;;;;;;;56.47;35.92;;;;;;;;;;5065798;28;20067;-76
2022/12/22 07:30:27;;;;;;;56.75;36.05;;;;;;;;;;5068503;28;20386;-77
2022/12/22 07:32:53;;;;;;;53.63;35.85;;;;;;;;;;5069676;28;20019;-78
2022/12/22 07:35:19;;;;;;;62.17;36.35;;;;;;;;;;5064429;28;20060;-78
2022/12/22 07:37:47;;;;;;;58.88;38.72;;;;;;;;;;5062948;28;20021;-80
2022/12/22 07:40:13;;;;;;;57.95;36.72;;;;;;;;;;5066483;28;20056;-78
2022/12/22 07:42:46;;;;;;;57.13;36.75;;;;;;;;;;5063892;28;20394;-79
2022/12/22 07:45:11;;;;;;;59.08;37.85;;;;;;;;;;5062266;28;20534;-77
2022/12/22 07:47:38;;;;;;;58.42;36.80;;;;;;;;;;5061230;28;20072;-78
2022/12/22 07:52:49;;;;;;;65.03;38.25;;;;;;;;;;5065027;28;20067;-76
2022/12/22 07:55:15;;;;;;;66.40;40.63;;;;;;;;;;5078952;28;20026;-81
2022/12/22 07:57:41;;;;;;;58.92;36.55;;;;;;;;;;5079030;28;20013;-82
2022/12/22 08:00:08;;;;;;;59.10;37.65;;;;;;;;;;5079571;28;20020;-81
2022/12/22 08:02:34;;;;;;;63.60;42.08;;;;;;;;;;5078894;28;20017;-82
2022/12/22 08:05:00;;;;;;;61.92;39.22;;;;;;;;;;5063995;28;20021;-72
2022/12/22 08:07:26;;;;;;;52.15;34.55;;;;;;;;;;5057181;28;20025;-74
2022/12/22 08:09:52;;;;;;;47.15;31.60;;;;;;;;;;5057839;28;20017;-82
2022/12/22 08:12:18;;;;;;;47.30;32.30;;;;;;;;;;5066233;28;20031;-82
2022/12/22 08:14:44;;;;;;;54.83;32.40;;;;;;;;;;5068630;28;20028;-80
2022/12/22 08:17:13;;;;;;;42.10;28.85;;;;;;;;;;5076633;28;20036;-81
2022/12/22 08:19:39;;;;;;;42.42;29.65;;;;;;;;;;5079391;28;20025;-80
2022/12/22 08:22:05;;;;;;;40.75;29.42;;;;;;;;;;5078319;28;20017;-81
2022/12/22 08:24:31;;;;;;;48.55;28.80;;;;;;;;;;5077412;28;20067;-79
2022/12/22 08:27:00;;;;;;;42.88;28.50;;;;;;;;;;5077700;28;20033;-80
2022/12/22 08:29:29;;;;;;;38.38;27.92;;;;;;;;;;5078175;28;20045;-81
2022/12/22 08:31:55;;;;;;;39.50;27.17;;;;;;;;;;5070934;28;20056;-81
2022/12/22 08:34:21;;;;;;;36.00;26.08;;;;;;;;;;5067892;28;20033;-80
2022/12/22 08:36:48;;;;;;;36.17;26.20;;;;;;;;;;5067282;28;20056;-81
2022/12/22 08:39:15;;;;;;;37.25;24.92;;;;;;;;;;5067971;28;20024;-82
2022/12/22 08:41:50;;;;;;;36.63;25.65;;;;;;;;;;5069450;28;20163;-81
2022/12/22 08:44:21;;;;;;;32.70;24.02;;;;;;;;;;5069456;28;20017;-82
2022/12/22 08:46:47;;;;;;;31.25;23.38;;;;;;;;;;5066648;28;20021;-81
2022/12/22 08:49:13;;;;;;;30.40;22.95;;;;;;;;;;5067488;28;20029;-79
2022/12/22 08:51:39;;;;;;;32.85;22.70;;;;;;;;;;5070878;28;20017;-81
2022/12/22 08:54:05;;;;;;;30.55;22.33;;;;;;;;;;5066802;28;20040;-77
2022/12/22 08:56:31;;;;;;;64.30;36.30;;;;;;;;;;5064143;28;20036;-81
2022/12/22 08:58:57;;;;;;;43.28;27.33;;;;;;;;;;5064291;28;20025;-78
2022/12/22 09:01:23;;;;;;;37.05;24.38;;;;;;;;;;5064778;28;20025;-77
2022/12/22 09:03:53;;;;;;;30.20;21.58;;;;;;;;;;5066082;28;20079;-78
2022/12/22 09:06:20;;;;;;;26.48;19.95;;;;;;;;;;5065711;28;20032;-79
2022/12/22 09:08:46;;;;;;;29.83;21.42;;;;;;;;;;5069069;28;20020;-81
2022/12/22 09:11:12;;;;;;;27.55;20.13;;;;;;;;;;5069106;28;20063;-78
2022/12/22 09:13:38;;;;;;;33.90;19.05;;;;;;;;;;5069665;28;20028;-77
2022/12/22 09:16:05;;;;;;;26.90;19.58;;;;;;;;;;5075504;28;20036;-78
2022/12/22 09:18:31;;;;;;;28.00;20.45;;;;;;;;;;5076543;28;20032;-78
2022/12/22 09:20:57;;;;;;;25.75;18.20;;;;;;;;;;5070478;28;20125;-78
2022/12/22 09:23:23;;;;;;;25.98;17.50;;;;;;;;;;5062604;28;20028;-77
2022/12/22 09:25:49;;;;;;;21.98;16.92;;;;;;;;;;5059967;28;20033;-77
2022/12/22 09:28:15;;;;;;;19.90;15.52;;;;;;;;;;5062636;28;20029;-77
2022/12/22 09:30:41;;;;;;;19.50;15.57;;;;;;;;;;5060213;28;20045;-78
2022/12/22 09:33:07;;;;;;;21.42;16.20;;;;;;;;;;5059053;28;20051;-77
2022/12/22 09:35:33;;;;;;;21.58;16.75;;;;;;;;;;5061026;28;20029;-77
2022/12/22 09:37:59;;;;;;;21.73;16.95;;;;;;;;;;5059830;28;20585;-78
2022/12/22 09:40:26;;;;;;;22.77;16.73;;;;;;;;;;5062778;28;20021;-78
2022/12/22 09:42:52;;;;;;;27.13;19.27;;;;;;;;;;5060729;28;20032;-79
2022/12/22 09:45:19;;;;;;;27.23;20.05;;;;;;;;;;5064038;28;20104;-79
2022/12/22 09:47:52;;;;;;;32.25;22.45;;;;;;;;;;5061475;28;20021;-79
2022/12/22 09:50:20;;;;;;;34.42;23.15;;;;;;;;;;5062951;28;20025;-79
2022/12/22 09:52:48;;;;;;;36.13;24.83;;;;;;;;;;5064776;28;20474;-79
2022/12/22 09:55:19;;;;;;;50.58;29.33;;;;;;;;;;5067610;28;20108;-78
2022/12/22 09:57:45;;;;;;;41.78;26.42;;;;;;;;;;5075955;28;20040;-77
2022/12/22 10:00:15;;;;;;;43.53;26.00;;;;;;;;;;5076821;28;20021;-78
2022/12/22 10:03:02;;;;;;;41.97;27.85;;;;;;;;;;5077371;28;20037;-78
2022/12/22 10:05:37;;;;;;;49.10;28.73;;;;;;;;;;5074357;28;20021;-79
2022/12/22 10:08:09;;;;;;;46.22;28.52;;;;;;;;;;5070814;28;20045;-78
2022/12/22 10:10:35;;;;;;;45.50;28.30;;;;;;;;;;5072865;28;20092;-77
2022/12/22 10:13:01;;;;;;;50.55;29.48;;;;;;;;;;5057465;28;20068;-76
2022/12/22 10:15:38;;;;;;;46.63;29.35;;;;;;;;;;5058775;28;20036;-80
2022/12/22 10:18:10;;;;;;;48.05;30.00;;;;;;;;;;5058683;28;20017;-77
2022/12/22 10:20:38;;;;;;;46.10;30.42;;;;;;;;;;5058577;28;20025;-77
2022/12/22 10:23:12;;;;;;;45.58;29.40;;;;;;;;;;5057949;28;20050;-77
2022/12/22 10:25:58;;;;;;;50.92;30.65;;;;;;;;;;5056167;28;20037;-76
2022/12/22 10:28:29;;;;;;;47.70;29.70;;;;;;;;;;5057085;28;20048;-78
2022/12/22 10:31:12;;;;;;;45.13;29.13;;;;;;;;;;5056627;28;20029;-77
2022/12/22 10:33:38;;;;;;;44.47;29.38;;;;;;;;;;5052780;28;20108;-76
2022/12/22 10:36:05;;;;;;;44.70;27.88;;;;;;;;;;5058767;28;20060;-77
2022/12/22 10:38:32;;;;;;;43.95;29.25;;;;;;;;;;5062484;28;20025;-79
2022/12/22 10:41:16;;;;;;;44.47;28.48;;;;;;;;;;5074541;28;20015;-79
2022/12/22 10:43:56;;;;;;;44.67;28.50;;;;;;;;;;5074802;28;20029;-79
2022/12/22 10:46:33;;;;;;;45.83;30.52;;;;;;;;;;5065773;28;20059;-74
2022/12/22 10:49:10;;;;;;;44.75;29.38;;;;;;;;;;5070289;28;20039;-78
2022/12/22 10:51:36;;;;;;;43.47;28.98;;;;;;;;;;5065744;28;20033;-77
2022/12/22 10:54:02;;;;;;;45.10;29.67;;;;;;;;;;5058967;28;20044;-76
2022/12/22 10:56:29;;;;;;;42.13;28.55;;;;;;;;;;5064388;28;20021;-76
2022/12/22 10:58:57;;;;;;;43.80;28.98;;;;;;;;;;5071452;28;20047;-78
2022/12/22 11:01:30;;;;;;;43.30;27.75;;;;;;;;;;5077895;28;20041;-80
2022/12/22 11:03:56;;;;;;;45.75;29.23;;;;;;;;;;5079058;28;20036;-79
2022/12/22 11:06:23;;;;;;;46.03;29.13;;;;;;;;;;5079763;28;20025;-80
2022/12/22 11:08:49;;;;;;;43.65;28.52;;;;;;;;;;5079614;28;20014;-79
2022/12/22 11:11:25;;;;;;;42.38;27.02;;;;;;;;;;5079313;28;20020;-79
2022/12/22 11:14:17;;;;;;;42.25;26.98;;;;;;;;;;5079792;28;20036;-77
2022/12/22 11:16:50;;;;;;;47.08;28.33;;;;;;;;;;5064142;28;20040;-79
2022/12/22 11:19:54;;;;;;;46.55;27.80;;;;;;;;;;5073825;28;20097;-78
2022/12/22 11:22:28;;;;;;;45.17;28.17;;;;;;;;;;5027112;28;20025;-79
2022/12/22 11:25:06;;;;;;;50.20;28.42;;;;;;;;;;5026927;28;20467;-78
2022/12/22 11:27:38;;;;;;;43.08;27.92;;;;;;;;;;5048099;28;20029;-79
2022/12/22 11:30:08;;;;;;;41.63;27.45;;;;;;;;;;5064284;28;20021;-79
2022/12/22 11:32:55;;;;;;;82.85;47.90;;;;;;;;;;5064867;28;20047;-78
2022/12/22 11:35:36;;;;;;;43.75;27.80;;;;;;;;;;5067487;28;20033;-78
2022/12/22 11:38:02;;;;;;;35.35;22.67;;;;;;;;;;5064797;28;20025;-78
2022/12/22 11:40:32;;;;;;;35.90;22.88;;;;;;;;;;5065729;28;20474;-76
2022/12/22 11:43:17;;;;;;;35.65;22.13;;;;;;;;;;5063860;28;20397;-77
2022/12/22 11:45:43;;;;;;;38.88;23.25;;;;;;;;;;5060952;28;20032;-77
2022/12/22 11:48:31;;;;;;;33.35;19.98;;;;;;;;;;5068055;28;20048;-78
2022/12/22 11:51:03;;;;;;;32.65;19.88;;;;;;;;;;5066975;28;20021;-79
2022/12/22 11:53:46;;;;;;;28.92;18.08;;;;;;;;;;5066801;28;20025;-78
2022/12/22 11:56:19;;;;;;;28.30;18.23;;;;;;;;;;5068294;28;20032;-78
2022/12/22 11:58:45;;;;;;;27.90;17.23;;;;;;;;;;5067620;28;20021;-79
2022/12/22 12:01:11;;;;;;;25.58;17.00;;;;;;;;;;5065599;28;20029;-79
2022/12/22 12:03:37;;;;;;;27.30;16.45;;;;;;;;;;5065387;28;20043;-78
2022/12/22 12:06:38;;;;;;;23.77;16.60;;;;;;;;;;5065524;28;20029;-78
2022/12/22 12:09:17;;;;;;;26.17;16.15;;;;;;;;;;5025349;28;20033;-78
2022/12/22 12:11:55;;;;;;;25.20;15.98;;;;;;;;;;5059947;28;20041;-78
2022/12/22 12:14:28;;;;;;;27.98;16.48;;;;;;;;;;5065150;28;20029;-77
2022/12/22 12:17:13;;;;;;;29.00;18.77;;;;;;;;;;5063163;28;20017;-78
2022/12/22 12:19:41;;;;;;;;;;;;;;;;;;5064574;28;20025;-79
2022/12/22 12:22:33;;;;;;;25.85;15.27;;;;;;;;;;5065762;28;19904;-79
2022/12/22 12:25:00;;;;;;;21.20;14.15;;;;;;;;;;5063417;28;20056;-77
2022/12/22 12:27:26;;;;;;;24.20;14.80;;;;;;;;;;5063723;28;20025;-78
2022/12/22 12:29:52;;;;;;;23.48;15.32;;;;;;;;;;5062280;28;20036;-77
2022/12/22 12:32:23;;;;;;;24.38;15.13;;;;;;;;;;5063527;28;20029;-79
2022/12/22 12:34:52;;;;;;;26.38;16.25;;;;;;;;;;5065159;28;20077;-78
2022/12/22 12:37:22;;;;;;;22.55;15.52;;;;;;;;;;5063849;28;20031;-78
2022/12/22 12:39:48;;;;;;;23.60;15.35;;;;;;;;;;5065080;28;20035;-79
2022/12/22 12:42:32;;;;;;;24.05;15.73;;;;;;;;;;5069147;28;20048;-78
2022/12/22 12:45:01;;;;;;;27.20;16.00;;;;;;;;;;5071767;28;20025;-78
2022/12/22 12:47:36;;;;;;;25.17;13.52;;;;;;;;;;5071402;28;20025;-78
2022/12/22 12:50:05;;;;;;;22.05;12.43;;;;;;;;;;5070941;28;20033;-79
2022/12/22 12:52:42;;;;;;;22.85;12.25;;;;;;;;;;5071441;28;20093;-79
2022/12/22 12:55:24;;;;;;;21.55;13.10;;;;;;;;;;5074396;28;20092;-79
2022/12/22 12:57:50;;;;;;;23.15;13.00;;;;;;;;;;5072301;28;20047;-79
2022/12/22 13:00:47;;;;;;;18.67;11.88;;;;;;;;;;5076323;28;20009;-80
2022/12/22 13:03:28;;;;;;;18.33;10.60;;;;;;;;;;5073163;28;20081;-77
2022/12/22 13:05:58;;;;;;;22.92;11.57;;;;;;;;;;5077986;28;20040;-78
2022/12/22 13:08:24;;;;;;;19.83;9.70;;;;;;;;;;5077119;28;20093;-78
2022/12/22 13:10:53;;;;;;;22.73;9.93;;;;;;;;;;5077320;28;20036;-78
2022/12/22 13:13:25;;;;;;;18.95;9.00;;;;;;;;;;5070070;28;20086;-77
2022/12/22 13:16:06;;;;;;;19.83;8.85;;;;;;;;;;5064915;28;20032;-78
2022/12/22 13:18:35;;;;;;;17.50;8.88;;;;;;;;;;5061182;28;20031;-77
2022/12/22 13:21:21;;;;;;;18.60;8.80;;;;;;;;;;5061645;28;20035;-79
2022/12/22 13:24:03;;;;;;;28.95;9.23;;;;;;;;;;5061292;28;20111;-77
2022/12/22 13:26:36;;;;;;;19.80;8.23;;;;;;;;;;5057642;28;20132;-76
2022/12/22 13:29:08;;;;;;;24.67;8.93;;;;;;;;;;5068110;28;20025;-75
2022/12/22 13:31:43;;;;;;;24.08;8.75;;;;;;;;;;5072002;28;20079;-79
2022/12/22 13:34:27;;;;;;;26.40;8.77;;;;;;;;;;5062754;28;20033;-74
2022/12/22 13:36:54;;;;;;;22.65;8.95;;;;;;;;;;5061317;28;20029;-75
2022/12/22 13:39:20;;;;;;;19.77;8.55;;;;;;;;;;5062426;28;20056;-81
2022/12/22 13:41:48;;;;;;;22.77;8.52;;;;;;;;;;5066474;28;20547;-82
2022/12/22 13:44:16;;;;;;;19.67;8.55;;;;;;;;;;5059204;28;20029;-78
2022/12/22 13:46:43;;;;;;;20.35;8.98;;;;;;;;;;5061148;28;20029;-79
2022/12/22 13:49:12;;;;;;;22.80;9.18;;;;;;;;;;5061225;28;20387;-78
2022/12/22 13:51:39;;;;;;;23.30;9.20;;;;;;;;;;5065020;28;20414;-80
2022/12/22 13:54:11;;;;;;;22.50;9.27;;;;;;;;;;5065592;28;20029;-78
2022/12/22 13:56:37;;;;;;;30.92;9.93;;;;;;;;;;5062804;28;20021;-80
2022/12/22 13:59:03;;;;;;;23.25;9.10;;;;;;;;;;5065173;28;20378;-80
2022/12/22 14:01:29;;;;;;;18.83;8.90;;;;;;;;;;5065026;28;20021;-80
2022/12/22 14:04:00;;;;;;;33.35;14.57;;;;;;;;;;5059170;28;20025;-79
2022/12/22 14:06:26;;;;;;;24.40;10.20;;;;;;;;;;5057676;28;20077;-79
2022/12/22 14:08:52;;;;;;;27.13;10.05;;;;;;;;;;5047016;28;20025;-80
2022/12/22 14:11:18;;;;;;;23.00;10.05;;;;;;;;;;5051731;28;20090;-79
2022/12/22 14:13:44;;;;;;;28.52;9.75;;;;;;;;;;5067254;28;20026;-78
2022/12/22 14:16:13;;;;;;;23.30;10.52;;;;;;;;;;5067343;28;20025;-79
2022/12/22 14:18:39;;;;;;;25.27;9.88;;;;;;;;;;5072383;28;20063;-80
2022/12/22 14:21:06;;;;;;;25.08;10.13;;;;;;;;;;5075348;28;20039;-80
2022/12/22 14:23:34;;;;;;;24.20;10.15;;;;;;;;;;5090409;28;20032;-79
2022/12/22 14:26:03;;;;;;;23.50;9.85;;;;;;;;;;5074447;28;20021;-80
2022/12/22 14:28:33;;;;;;;25.23;10.40;;;;;;;;;;5071875;28;20012;-80
2022/12/22 14:31:00;;;;;;;32.88;11.20;;;;;;;;;;5055504;28;20029;-78
2022/12/22 14:33:31;;;;;;;35.22;11.82;;;;;;;;;;5069381;28;20492;-80
2022/12/22 14:36:26;;;;;;;30.58;9.93;;;;;;;;;;5059922;28;20413;-80
2022/12/22 14:38:56;;;;;;;33.13;10.07;;;;;;;;;;5064912;28;20083;-79
2022/12/22 14:41:41;;;;;;;39.75;13.65;;;;;;;;;;5057345;28;20117;-79
2022/12/22 14:44:21;;;;;;;31.25;10.88;;;;;;;;;;5062005;28;20090;-79
2022/12/22 14:47:03;;;;;;;38.17;13.20;;;;;;;;;;5059882;28;20051;-79
2022/12/22 14:49:29;;;;;;;30.95;10.05;;;;;;;;;;5072130;28;20078;-78
2022/12/22 14:51:55;;;;;;;27.40;11.23;;;;;;;;;;5066515;28;20033;-78
2022/12/22 14:54:24;;;;;;;31.83;11.88;;;;;;;;;;5059416;28;20025;-78
2022/12/22 14:56:51;;;;;;;68.65;26.48;;;;;;;;;;5063868;28;20051;-78
2022/12/22 14:59:25;;;;;;;42.08;15.15;;;;;;;;;;5057502;28;20029;-77
2022/12/22 15:02:02;;;;;;;60.53;22.58;;;;;;;;;;5062278;28;20021;-79
2022/12/22 15:04:28;;;;;;;49.80;20.75;;;;;;;;;;5053529;28;20025;-78
2022/12/22 15:07:04;;;;;;;42.47;18.17;;;;;;;;;;5077760;28;20362;-78
2022/12/22 15:09:30;;;;;;;43.42;14.75;;;;;;;;;;5064195;28;20040;-79
2022/12/22 15:12:03;;;;;;;37.95;13.73;;;;;;;;;;5064327;28;20021;-81
2022/12/22 15:14:30;;;;;;;34.38;11.20;;;;;;;;;;5069269;28;20013;-78
2022/12/22 15:16:58;;;;;;;33.63;12.27;;;;;;;;;;5067471;28;20043;-78
2022/12/22 15:19:27;;;;;;;30.65;12.40;;;;;;;;;;5067126;28;20025;-77
2022/12/22 15:21:53;;;;;;;34.92;13.15;;;;;;;;;;5073154;28;20021;-78
2022/12/22 15:24:19;;;;;;;36.03;13.55;;;;;;;;;;5073319;28;20044;-77
2022/12/22 15:26:46;;;;;;;35.83;13.88;;;;;;;;;;5069675;28;20044;-79
2022/12/22 15:29:12;;;;;;;39.58;12.95;;;;;;;;;;5073052;28;20375;-79
2022/12/22 15:31:39;;;;;;;36.97;15.02;;;;;;;;;;5069187;28;20051;-80
2022/12/22 15:34:10;;;;;;;27.63;11.02;;;;;;;;;;5066188;28;20086;-79
2022/12/22 15:36:36;;;;;;;31.55;11.68;;;;;;;;;;5048159;28;20017;-78
2022/12/22 15:39:03;;;;;;;34.42;12.23;;;;;;;;;;5060173;28;20028;-79
2022/12/22 15:41:29;;;;;;;39.75;12.60;;;;;;;;;;5061666;28;20021;-79
2022/12/22 15:43:54;;;;;;;28.80;12.30;;;;;;;;;;5061644;28;20036;-78
2022/12/22 15:46:20;;;;;;;34.05;12.23;;;;;;;;;;5060840;28;20039;-82
2022/12/22 15:48:47;;;;;;;31.45;11.82;;;;;;;;;;5064451;28;20021;-78
2022/12/22 15:51:17;;;;;;;32.45;12.95;;;;;;;;;;5068885;28;20029;-80
2022/12/22 15:53:43;;;;;;;31.48;11.68;;;;;;;;;;5065353;28;20033;-79
2022/12/22 15:56:11;;;;;;;28.42;11.10;;;;;;;;;;5065204;28;20028;-78
2022/12/22 15:58:38;;;;;;;44.72;13.82;;;;;;;;;;5066271;28;20017;-79
2022/12/22 16:01:05;;;;;;;34.10;13.13;;;;;;;;;;5067737;28;20021;-79
2022/12/22 16:03:30;;;;;;;39.58;12.25;;;;;;;;;;5064364;28;20029;-79
2022/12/22 16:05:57;;;;;;;32.40;11.95;;;;;;;;;;5061189;28;20025;-78
2022/12/22 16:08:27;;;;;;;37.28;11.68;;;;;;;;;;5062457;28;20025;-77
2022/12/22 16:10:53;;;;;;;31.27;10.82;;;;;;;;;;5064358;28;20110;-79
2022/12/22 16:13:21;;;;;;;39.30;12.02;;;;;;;;;;5063653;28;20033;-78
2022/12/22 16:15:47;;;;;;;29.23;11.43;;;;;;;;;;5061382;28;20055;-78
2022/12/22 16:18:13;;;;;;;44.25;18.50;;;;;;;;;;5061305;28;20478;-78
2022/12/22 16:20:41;;;;;;;39.47;12.57;;;;;;;;;;5060175;28;20387;-78
2022/12/22 16:23:10;;;;;;;35.10;13.02;;;;;;;;;;5063890;28;20029;-78
2022/12/22 16:25:38;;;;;;;34.78;13.90;;;;;;;;;;5066443;28;20247;-78
2022/12/22 16:28:04;;;;;;;48.17;13.10;;;;;;;;;;5071973;28;20067;-78
2022/12/22 16:30:31;;;;;;;37.72;13.05;;;;;;;;;;5074852;28;20013;-80
2022/12/22 16:32:58;;;;;;;42.40;12.55;;;;;;;;;;5070747;28;20040;-80
2022/12/22 16:35:25;;;;;;;32.47;12.60;;;;;;;;;;5062800;28;20029;-78
2022/12/22 16:37:51;;;;;;;33.50;13.00;;;;;;;;;;5060113;28;20029;-78
2022/12/22 16:40:18;;;;;;;38.03;12.98;;;;;;;;;;5061551;28;20021;-77
2022/12/22 16:43:05;;;;;;;37.60;12.93;;;;;;;;;;5060409;28;20501;-78
2022/12/22 16:45:31;;;;;;;42.55;14.02;;;;;;;;;;5064765;28;20028;-77
2022/12/22 16:48:00;;;;;;;36.92;12.63;;;;;;;;;;5072001;28;20021;-78
2022/12/22 16:50:31;;;;;;;42.38;12.95;;;;;;;;;;5071737;28;20089;-79
2022/12/22 16:52:59;;;;;;;37.33;13.45;;;;;;;;;;5071608;28;20183;-77
2022/12/22 16:55:25;;;;;;;31.50;11.93;;;;;;;;;;5070128;28;20021;-77
2022/12/22 16:57:51;;;;;;;38.67;14.15;;;;;;;;;;5069158;28;20027;-78
2022/12/22 17:00:19;;;;;;;44.35;13.57;;;;;;;;;;5071393;28;20005;-80
2022/12/22 17:02:47;;;;;;;36.55;12.43;;;;;;;;;;5064317;28;20098;-79
2022/12/22 17:05:22;;;;;;;30.17;13.00;;;;;;;;;;5062255;28;20395;-77
2022/12/22 17:07:48;;;;;;;43.53;14.15;;;;;;;;;;5066144;28;20046;-79
2022/12/22 17:10:15;;;;;;;33.97;12.65;;;;;;;;;;5062408;28;20112;-79
2022/12/22 17:12:41;;;;;;;31.77;11.82;;;;;;;;;;5062377;28;20029;-80
2022/12/22 17:15:07;;;;;;;40.08;13.15;;;;;;;;;;5062486;28;20021;-79
2022/12/22 17:17:33;;;;;;;41.20;12.60;;;;;;;;;;5061267;28;20367;-78
2022/12/22 17:19:59;;;;;;;44.72;13.88;;;;;;;;;;5052606;28;20483;-79
2022/12/22 17:22:26;;;;;;;37.08;13.73;;;;;;;;;;5062456;28;20032;-78
2022/12/22 17:24:53;;;;;;;36.50;13.80;;;;;;;;;;5062601;28;20070;-79
2022/12/22 17:27:25;;;;;;;33.85;12.00;;;;;;;;;;5062893;28;20051;-80
2022/12/22 17:29:52;;;;;;;39.55;12.40;;;;;;;;;;5069067;28;20181;-78
2022/12/22 17:32:19;;;;;;;36.53;12.73;;;;;;;;;;5082582;28;20028;-80
2022/12/22 17:34:45;;;;;;;38.30;12.57;;;;;;;;;;5083535;28;20084;-79
2022/12/22 17:37:15;;;;;;;30.70;12.43;;;;;;;;;;5088132;28;20029;-79
2022/12/22 17:39:41;;;;;;;39.78;12.80;;;;;;;;;;5091162;28;20111;-80
2022/12/22 17:42:17;;;;;;;40.38;12.98;;;;;;;;;;5092802;28;20028;-79
2022/12/22 17:44:43;;;;;;;34.25;12.55;;;;;;;;;;5095726;28;19996;-80
2022/12/22 17:47:12;;;;;;;36.75;12.85;;;;;;;;;;5088753;28;20009;-78
2022/12/22 17:49:37;;;;;;;39.97;14.05;;;;;;;;;;5069226;28;20021;-78
2022/12/22 17:52:04;;;;;;;41.42;13.43;;;;;;;;;;5062978;28;20021;-80
2022/12/22 17:54:29;;;;;;;39.92;13.85;;;;;;;;;;5062760;28;20029;-80
2022/12/22 17:57:00;;;;;;;34.90;13.55;;;;;;;;;;5062473;28;20025;-81
2022/12/22 17:59:26;;;;;;;39.58;13.73;;;;;;;;;;5063501;28;20025;-78
2022/12/22 18:01:52;;;;;;;46.15;13.68;;;;;;;;;;5063967;28;20017;-79
2022/12/22 18:04:18;;;;;;;49.35;15.82;;;;;;;;;;5063003;28;20086;-79
2022/12/22 18:06:44;;;;;;;47.25;14.77;;;;;;;;;;5067320;28;20053;-80
2022/12/22 18:09:18;;;;;;;36.08;14.07;;;;;;;;;;5077315;28;20141;-80
2022/12/22 18:11:44;;;;;;;42.97;13.93;;;;;;;;;;5060484;28;20520;-81